createdAt,value
2018-10-18T00:01:17.965Z,58.62
2018-10-18T00:03:44.310Z,58.88
2018-10-18T00:06:10.696Z,58.82
2018-10-18T00:08:37.001Z,58.84
2018-10-18T00:11:03.311Z,58.94
2018-10-18T00:13:29.660Z,58.98
2018-10-18T00:15:55.962Z,59.06
2018-10-18T00:18:22.313Z,59.09
2018-10-18T00:20:48.647Z,59.06
2018-10-18T00:23:15.009Z,59.10
2018-10-18T00:25:41.304Z,59.09
2018-10-18T00:28:07.627Z,59.11
2018-10-18T00:30:33.944Z,59.17
2018-10-18T00:33:00.251Z,59.38
2018-10-18T00:35:26.556Z,59.49
2018-10-18T00:37:52.931Z,59.96
2018-10-18T00:40:19.189Z,60.12
2018-10-18T00:42:45.488Z,60.22
2018-10-18T00:45:11.823Z,60.37
2018-10-18T00:47:38.170Z,60.15
2018-10-18T00:50:04.524Z,60.29
2018-10-18T00:52:30.838Z,60.55
2018-10-18T00:54:57.141Z,60.74
2018-10-18T00:57:23.479Z,60.69
2018-10-18T00:59:49.779Z,60.67
2018-10-18T01:02:16.167Z,60.97
2018-10-18T01:04:42.417Z,61.06
2018-10-18T01:07:08.730Z,61.14
2018-10-18T01:09:35.069Z,61.33
2018-10-18T01:12:01.394Z,61.40
2018-10-18T01:14:27.673Z,61.44
2018-10-18T01:16:54.004Z,61.28
2018-10-18T01:19:20.371Z,61.54
2018-10-18T01:21:46.703Z,61.66
2018-10-18T01:24:13.115Z,61.53
2018-10-18T01:26:39.304Z,61.87
2018-10-18T01:29:05.631Z,61.76
2018-10-18T01:31:31.932Z,61.91
2018-10-18T01:33:58.240Z,62.00
2018-10-18T01:36:24.637Z,62.10
2018-10-18T01:38:50.942Z,62.24
2018-10-18T01:41:17.274Z,62.29
2018-10-18T01:43:43.579Z,62.16
2018-10-18T01:46:09.911Z,62.16
2018-10-18T01:48:36.287Z,62.24
2018-10-18T01:51:02.617Z,62.33
2018-10-18T01:53:28.913Z,62.71
2018-10-18T01:55:55.259Z,62.78
2018-10-18T01:58:21.558Z,63.15
2018-10-18T02:00:47.857Z,63.28
2018-10-18T02:03:14.232Z,63.40
2018-10-18T02:05:40.531Z,63.57
2018-10-18T02:08:06.928Z,63.88
2018-10-18T02:10:33.161Z,63.98
2018-10-18T02:12:59.469Z,64.13
2018-10-18T02:15:25.764Z,63.99
2018-10-18T02:17:52.182Z,63.80
2018-10-18T02:20:18.436Z,63.81
2018-10-18T02:22:44.778Z,63.90
2018-10-18T02:25:11.133Z,63.95
2018-10-18T02:27:37.415Z,64.00
2018-10-18T02:30:07.668Z,64.00
2018-10-18T02:32:33.925Z,64.20
2018-10-18T02:35:00.254Z,64.09
2018-10-18T02:37:26.601Z,64.32
2018-10-18T02:39:52.921Z,64.11
2018-10-18T02:42:19.287Z,64.13
2018-10-18T02:44:45.569Z,64.24
2018-10-18T02:47:11.894Z,64.43
2018-10-18T02:49:38.213Z,64.48
2018-10-18T02:52:04.549Z,64.64
2018-10-18T02:54:30.879Z,64.80
2018-10-18T02:56:57.217Z,64.91
2018-10-18T02:59:23.566Z,65.01
2018-10-18T03:01:49.865Z,65.22
2018-10-18T03:04:16.171Z,65.61
2018-10-18T03:06:42.499Z,65.97
2018-10-18T03:09:08.833Z,66.21
2018-10-18T03:11:35.203Z,66.41
2018-10-18T03:14:01.541Z,66.63
2018-10-18T03:16:27.868Z,66.77
2018-10-18T03:18:54.175Z,67.07
2018-10-18T03:21:20.521Z,67.26
2018-10-18T03:23:46.850Z,67.54
2018-10-18T03:26:13.194Z,67.94
2018-10-18T03:28:39.507Z,68.29
2018-10-18T03:31:05.821Z,68.15
2018-10-18T03:33:32.120Z,67.98
2018-10-18T03:35:58.475Z,68.06
2018-10-18T03:38:24.781Z,68.17
2018-10-18T03:40:51.135Z,68.33
2018-10-18T03:43:17.456Z,68.46
2018-10-18T03:45:43.817Z,68.68
2018-10-18T03:48:10.150Z,68.45
2018-10-18T03:50:36.395Z,68.57
2018-10-18T03:53:02.743Z,68.92
2018-10-18T03:55:29.050Z,69.27
2018-10-18T03:57:55.340Z,69.46
2018-10-18T04:00:21.761Z,69.29
2018-10-18T04:02:47.996Z,69.41
2018-10-18T04:05:14.307Z,69.60
2018-10-18T04:07:40.670Z,69.89
2018-10-18T04:10:06.982Z,70.20
2018-10-18T04:12:33.365Z,70.34
2018-10-18T04:14:59.639Z,70.50
2018-10-18T04:17:25.984Z,70.55
2018-10-18T04:19:52.287Z,70.65
2018-10-18T04:22:18.620Z,70.71
2018-10-18T04:24:44.969Z,71.00
2018-10-18T04:27:11.301Z,71.12
2018-10-18T04:29:37.639Z,70.86
2018-10-18T04:32:03.942Z,70.91
2018-10-18T04:34:30.264Z,70.54
2018-10-18T04:36:56.572Z,70.78
2018-10-18T04:39:22.889Z,71.17
2018-10-18T04:41:49.237Z,71.14
2018-10-18T04:44:15.563Z,71.36
2018-10-18T04:46:41.884Z,71.05
2018-10-18T04:49:08.273Z,70.88
2018-10-18T04:51:34.560Z,71.29
2018-10-18T04:54:00.902Z,71.10
2018-10-18T04:56:27.229Z,70.61
2018-10-18T04:58:53.553Z,70.16
2018-10-18T05:01:19.986Z,70.28
2018-10-18T05:03:46.156Z,70.23
2018-10-18T05:06:12.490Z,70.35
2018-10-18T05:08:38.800Z,70.19
2018-10-18T05:11:05.146Z,70.18
2018-10-18T05:13:31.461Z,70.08
2018-10-18T05:15:57.808Z,69.80
2018-10-18T05:18:24.107Z,69.58
2018-10-18T05:20:50.399Z,69.54
2018-10-18T05:23:16.725Z,69.43
2018-10-18T05:25:43.101Z,69.09
2018-10-18T05:28:09.425Z,68.71
2018-10-18T05:30:35.745Z,68.65
2018-10-18T05:33:02.056Z,68.56
2018-10-18T05:35:28.367Z,68.22
2018-10-18T05:37:54.691Z,67.49
2018-10-18T05:40:21.017Z,66.84
2018-10-18T05:42:47.345Z,66.63
2018-10-18T05:45:13.651Z,66.47
2018-10-18T05:47:39.955Z,66.09
2018-10-18T05:50:06.260Z,65.86
2018-10-18T05:52:32.564Z,65.27
2018-10-18T05:54:58.896Z,64.73
2018-10-18T05:57:25.210Z,64.49
2018-10-18T05:59:51.547Z,63.69
2018-10-18T06:02:17.851Z,63.50
2018-10-18T06:04:44.148Z,63.31
2018-10-18T06:07:10.574Z,62.62
2018-10-18T06:09:36.752Z,61.89
2018-10-18T06:12:03.053Z,61.58
2018-10-18T06:14:29.355Z,61.20
2018-10-18T06:16:55.713Z,61.16
2018-10-18T06:19:22.041Z,60.66
2018-10-18T06:21:48.380Z,60.02
2018-10-18T06:24:14.710Z,59.37
2018-10-18T06:26:41.036Z,58.94
2018-10-18T06:29:07.410Z,58.16
2018-10-18T06:31:33.646Z,57.87
2018-10-18T06:33:59.973Z,56.87
2018-10-18T06:36:26.271Z,56.32
2018-10-18T06:38:52.598Z,55.83
2018-10-18T06:41:18.967Z,55.18
2018-10-18T06:43:45.199Z,54.86
2018-10-18T06:46:11.574Z,54.01
2018-10-18T06:48:37.899Z,54.14
2018-10-18T06:51:04.205Z,53.94
2018-10-18T06:53:30.557Z,54.01
2018-10-18T06:55:56.860Z,54.08
2018-10-18T06:58:23.189Z,53.29
2018-10-18T07:00:49.516Z,52.70
2018-10-18T07:03:15.816Z,51.69
2018-10-18T07:05:42.149Z,51.87
2018-10-18T07:08:08.483Z,51.35
2018-10-18T07:10:34.780Z,51.51
2018-10-18T07:13:01.103Z,51.47
2018-10-18T07:15:27.431Z,50.77
2018-10-18T07:17:53.742Z,50.82
2018-10-18T07:20:20.041Z,49.78
2018-10-18T07:22:46.345Z,49.50
2018-10-18T07:25:12.663Z,49.69
2018-10-18T07:27:38.982Z,49.41
2018-10-18T07:30:05.325Z,49.29
2018-10-18T07:32:31.584Z,48.73
2018-10-18T07:34:57.965Z,48.59
2018-10-18T07:37:24.252Z,47.96
2018-10-18T07:39:50.581Z,48.28
2018-10-18T07:42:16.978Z,47.98
2018-10-18T07:44:43.216Z,47.05
2018-10-18T07:47:09.541Z,46.43
2018-10-18T07:49:35.872Z,45.59
2018-10-18T07:52:02.172Z,45.10
2018-10-18T07:54:28.481Z,44.96
2018-10-18T07:56:54.781Z,44.86
2018-10-18T07:59:21.110Z,44.71
2018-10-18T08:01:47.418Z,44.10
2018-10-18T08:04:13.752Z,43.29
2018-10-18T08:06:40.053Z,43.84
2018-10-18T08:09:06.366Z,43.20
2018-10-18T08:11:32.695Z,43.43
2018-10-18T08:13:59.021Z,42.34
2018-10-18T08:16:25.332Z,42.14
2018-10-18T08:18:51.660Z,42.02
2018-10-18T08:21:17.942Z,41.66
2018-10-18T08:23:44.270Z,41.67
2018-10-18T08:26:10.568Z,42.46
2018-10-18T08:28:36.896Z,41.50
2018-10-18T08:31:03.265Z,41.20
2018-10-18T08:33:29.587Z,40.82
2018-10-18T08:35:55.928Z,40.64
2018-10-18T08:38:22.273Z,40.98
2018-10-18T08:40:48.645Z,40.65
2018-10-18T08:43:14.982Z,40.04
2018-10-18T08:45:41.248Z,39.49
2018-10-18T08:48:07.576Z,39.17
2018-10-18T08:50:33.945Z,38.63
2018-10-18T08:53:00.249Z,38.83
2018-10-18T08:55:26.607Z,39.15
2018-10-18T08:57:52.911Z,38.82
2018-10-18T09:00:19.225Z,38.56
2018-10-18T09:02:45.569Z,38.22
2018-10-18T09:05:11.874Z,37.36
2018-10-18T09:07:38.181Z,37.41
2018-10-18T09:10:04.717Z,36.86
2018-10-18T09:12:30.805Z,36.58
2018-10-18T09:14:57.108Z,35.85
2018-10-18T09:17:23.448Z,35.10
2018-10-18T09:19:49.784Z,35.01
2018-10-18T09:22:16.115Z,34.85
2018-10-18T09:24:42.480Z,34.62
2018-10-18T09:27:08.857Z,35.03
2018-10-18T09:29:35.214Z,34.74
2018-10-18T09:32:01.544Z,34.93
2018-10-18T09:34:27.912Z,35.25
2018-10-18T09:36:54.289Z,35.81
2018-10-18T09:39:20.653Z,35.03
2018-10-18T09:41:46.952Z,35.35
2018-10-18T09:44:13.322Z,34.52
2018-10-18T09:46:39.643Z,34.02
2018-10-18T09:49:06.080Z,35.53
2018-10-18T09:51:32.319Z,35.90
2018-10-18T09:53:58.661Z,34.69
2018-10-18T09:56:24.968Z,33.67
2018-10-18T09:58:51.273Z,33.69
2018-10-18T10:01:17.733Z,34.27
2018-10-18T10:03:43.924Z,34.37
2018-10-18T10:06:10.234Z,34.55
2018-10-18T10:08:36.564Z,35.75
2018-10-18T10:11:02.895Z,36.19
2018-10-18T10:13:29.332Z,35.30
2018-10-18T10:15:55.507Z,35.50
2018-10-18T10:18:21.928Z,36.38
2018-10-18T10:20:48.127Z,36.45
2018-10-18T10:23:14.523Z,36.00
2018-10-18T10:25:40.815Z,36.52
2018-10-18T10:28:07.173Z,36.22
2018-10-18T10:30:33.485Z,36.29
2018-10-18T10:32:59.842Z,35.81
2018-10-18T10:35:26.194Z,36.11
2018-10-18T10:37:52.496Z,36.10
2018-10-18T10:40:18.891Z,36.13
2018-10-18T10:42:45.212Z,35.83
2018-10-18T10:45:11.628Z,35.29
2018-10-18T10:47:37.880Z,34.10
2018-10-18T10:50:04.237Z,33.42
2018-10-18T10:52:30.599Z,34.47
2018-10-18T10:54:56.927Z,34.95
2018-10-18T10:57:23.228Z,34.04
2018-10-18T10:59:49.557Z,34.03
2018-10-18T11:02:15.925Z,34.35
2018-10-18T11:04:42.172Z,33.98
2018-10-18T11:07:08.480Z,33.45
2018-10-18T11:09:34.890Z,32.07
2018-10-18T11:12:01.256Z,33.10
2018-10-18T11:14:27.539Z,33.60
2018-10-18T11:16:53.903Z,33.86
2018-10-18T11:19:20.168Z,33.71
2018-10-18T11:21:46.488Z,33.36
2018-10-18T11:24:12.902Z,33.41
2018-10-18T11:26:39.136Z,34.12
2018-10-18T11:29:05.480Z,34.12
2018-10-18T11:31:31.784Z,33.75
2018-10-18T11:33:58.153Z,33.42
2018-10-18T11:36:24.479Z,32.43
2018-10-18T11:38:50.808Z,32.24
2018-10-18T11:41:17.133Z,31.71
2018-10-18T11:43:43.457Z,33.11
2018-10-18T11:46:09.776Z,33.86
2018-10-18T11:48:36.110Z,33.71
2018-10-18T11:51:02.439Z,33.47
2018-10-18T11:53:28.779Z,33.21
2018-10-18T11:55:55.115Z,32.80
2018-10-18T11:58:21.423Z,33.87
2018-10-18T12:00:47.804Z,33.66
2018-10-18T12:03:14.200Z,34.59
2018-10-18T12:05:40.466Z,34.31
2018-10-18T12:08:06.804Z,34.12
2018-10-18T12:10:33.112Z,34.99
2018-10-18T12:12:59.432Z,35.47
2018-10-18T12:15:25.762Z,35.29
2018-10-18T12:17:52.083Z,34.90
2018-10-18T12:20:18.470Z,34.92
2018-10-18T12:22:44.783Z,34.65
2018-10-18T12:25:11.105Z,34.56
2018-10-18T12:27:37.441Z,34.03
2018-10-18T12:30:03.752Z,34.70
2018-10-18T12:32:30.081Z,34.71
2018-10-18T12:34:56.508Z,34.78
2018-10-18T12:37:22.769Z,34.62
2018-10-18T12:39:49.095Z,34.88
2018-10-18T12:42:15.413Z,36.14
2018-10-18T12:44:41.734Z,35.81
2018-10-18T12:47:08.067Z,35.71
2018-10-18T12:49:34.385Z,36.08
2018-10-18T12:52:00.702Z,35.82
2018-10-18T12:54:27.100Z,36.20
2018-10-18T12:56:53.429Z,36.86
2018-10-18T12:59:19.769Z,37.12
2018-10-18T13:01:46.117Z,36.58
2018-10-18T13:04:12.418Z,35.85
2018-10-18T13:06:38.749Z,35.79
2018-10-18T13:09:05.126Z,35.97
2018-10-18T13:11:31.418Z,36.26
2018-10-18T13:13:57.804Z,36.43
2018-10-18T13:16:24.126Z,37.03
2018-10-18T13:18:50.448Z,37.60
2018-10-18T13:21:16.816Z,37.48
2018-10-18T13:23:43.128Z,37.43
2018-10-18T13:26:09.489Z,37.38
2018-10-18T13:28:35.784Z,37.45
2018-10-18T13:31:02.113Z,37.51
2018-10-18T13:33:28.453Z,37.42
2018-10-18T13:35:54.776Z,37.33
2018-10-18T13:38:21.098Z,37.43
2018-10-18T13:40:47.490Z,37.82
2018-10-18T13:43:13.752Z,37.65
2018-10-18T13:45:40.073Z,37.80
2018-10-18T13:48:06.498Z,37.87
2018-10-18T13:50:32.734Z,38.13
2018-10-18T13:52:59.065Z,38.05
2018-10-18T13:55:25.394Z,37.78
2018-10-18T13:57:51.729Z,37.45
2018-10-18T14:00:18.149Z,37.65
2018-10-18T14:02:44.366Z,37.79
2018-10-18T14:05:10.786Z,37.86
2018-10-18T14:07:37.050Z,38.00
2018-10-18T14:10:03.366Z,38.28
2018-10-18T14:12:29.691Z,38.18
2018-10-18T14:14:56.043Z,38.32
2018-10-18T14:17:22.529Z,38.27
2018-10-18T14:19:48.738Z,38.51
2018-10-18T14:22:15.055Z,38.66
2018-10-18T14:24:41.383Z,38.68
2018-10-18T14:27:07.707Z,38.77
2018-10-18T14:29:34.024Z,38.70
2018-10-18T14:32:00.400Z,38.81
2018-10-18T14:34:26.772Z,39.05
2018-10-18T14:36:53.104Z,39.19
2018-10-18T14:39:19.431Z,39.42
2018-10-18T14:41:45.750Z,39.48
2018-10-18T14:44:12.129Z,39.51
2018-10-18T14:46:38.382Z,39.66
2018-10-18T14:49:04.693Z,40.71
2018-10-18T14:51:31.069Z,43.13
2018-10-18T14:53:57.361Z,44.68
2018-10-18T14:56:23.691Z,45.46
2018-10-18T14:58:50.024Z,46.02
2018-10-18T15:01:16.348Z,46.39
2018-10-18T15:03:42.723Z,46.71
2018-10-18T15:06:09.056Z,47.33
2018-10-18T15:08:35.378Z,47.42
2018-10-18T15:11:01.722Z,47.72
2018-10-18T15:13:28.015Z,47.90
2018-10-18T15:15:54.361Z,48.12
2018-10-18T15:18:20.731Z,48.31
2018-10-18T15:20:47.097Z,48.52
2018-10-18T15:23:13.473Z,49.02
2018-10-18T15:25:40.119Z,49.40
2018-10-18T15:28:06.110Z,49.91
2018-10-18T15:30:32.470Z,49.96
2018-10-18T15:32:58.763Z,50.26
2018-10-18T15:35:25.078Z,50.65
2018-10-18T15:37:51.439Z,50.81
2018-10-18T15:40:17.719Z,51.05
2018-10-18T15:42:44.039Z,51.20
2018-10-18T15:45:10.401Z,51.17
2018-10-18T15:47:36.757Z,51.11
2018-10-18T15:50:03.019Z,51.24
2018-10-18T15:52:29.345Z,51.51
2018-10-18T15:54:55.670Z,51.76
2018-10-18T15:57:21.998Z,51.99
2018-10-18T15:59:48.314Z,52.13
2018-10-18T16:02:14.649Z,52.33
2018-10-18T16:04:41.011Z,52.42
2018-10-18T16:07:07.308Z,52.85
2018-10-18T16:09:33.634Z,52.90
2018-10-18T16:12:00.017Z,53.14
2018-10-18T16:14:26.419Z,53.00
2018-10-18T16:16:52.761Z,53.03
2018-10-18T16:19:19.079Z,53.37
2018-10-18T16:21:45.432Z,53.65
2018-10-18T16:24:11.794Z,53.61
2018-10-18T16:26:38.138Z,54.15
2018-10-18T16:29:04.459Z,54.23
2018-10-18T16:31:30.780Z,54.47
2018-10-18T16:33:57.191Z,54.99
2018-10-18T16:36:23.423Z,54.76
2018-10-18T16:38:49.752Z,54.90
2018-10-18T16:41:16.410Z,54.97
2018-10-18T16:43:42.438Z,54.78
2018-10-18T16:46:08.888Z,54.24
2018-10-18T16:48:35.108Z,53.08
2018-10-18T16:51:01.465Z,52.44
2018-10-18T16:53:27.768Z,50.44
2018-10-18T16:55:54.129Z,50.23
2018-10-18T16:58:20.431Z,49.22
2018-10-18T17:00:46.762Z,48.90
2018-10-18T17:03:13.083Z,48.71
2018-10-18T17:05:39.413Z,48.93
2018-10-18T17:08:05.796Z,49.14
2018-10-18T17:10:32.072Z,49.47
2018-10-18T17:12:58.406Z,49.61
2018-10-18T17:15:24.743Z,50.01
2018-10-18T17:17:51.104Z,50.06
2018-10-18T17:20:17.558Z,50.17
2018-10-18T17:22:43.762Z,50.47
2018-10-18T17:25:10.125Z,50.67
2018-10-18T17:27:36.455Z,51.01
2018-10-18T17:30:02.778Z,51.29
2018-10-18T17:32:29.092Z,51.28
2018-10-18T17:34:55.431Z,51.44
2018-10-18T17:37:21.927Z,51.59
2018-10-18T17:39:48.305Z,51.72
2018-10-18T17:42:14.696Z,51.80
2018-10-18T17:44:41.009Z,51.88
2018-10-18T17:47:07.318Z,52.37
2018-10-18T17:49:33.726Z,52.75
2018-10-18T17:52:00.062Z,53.05
2018-10-18T17:54:26.335Z,53.29
2018-10-18T17:56:52.714Z,53.74
2018-10-18T17:59:19.037Z,53.91
2018-10-18T18:01:45.382Z,54.33
2018-10-18T18:04:11.735Z,54.67
2018-10-18T18:06:38.208Z,54.92
2018-10-18T18:09:04.389Z,55.66
2018-10-18T18:11:30.750Z,56.34
2018-10-18T18:13:57.085Z,56.57
2018-10-18T18:16:23.413Z,56.69
2018-10-18T18:18:49.802Z,57.05
2018-10-18T18:21:16.135Z,57.70
2018-10-18T18:23:42.469Z,58.13
2018-10-18T18:26:08.823Z,58.44
2018-10-18T18:28:35.155Z,58.91
2018-10-18T18:31:01.508Z,59.12
2018-10-18T18:33:27.866Z,59.30
2018-10-18T18:35:54.193Z,59.68
2018-10-18T18:38:20.513Z,60.21
2018-10-18T18:40:46.854Z,60.03
2018-10-18T18:43:13.188Z,60.46
2018-10-18T18:45:39.910Z,60.75
2018-10-18T18:48:06.198Z,60.55
2018-10-18T18:50:32.519Z,61.02
2018-10-18T18:52:58.877Z,61.45
2018-10-18T18:55:25.155Z,61.61
2018-10-18T18:57:51.474Z,61.79
2018-10-18T19:00:17.860Z,61.82
2018-10-18T19:02:44.159Z,62.12
2018-10-18T19:05:10.475Z,62.64
2018-10-18T19:07:36.831Z,62.76
2018-10-18T19:10:03.168Z,62.83
2018-10-18T19:12:29.492Z,62.74
2018-10-18T19:14:55.863Z,62.79
2018-10-18T19:17:22.189Z,63.49
2018-10-18T19:19:48.529Z,64.19
2018-10-18T19:22:14.901Z,64.00
2018-10-18T19:24:41.244Z,64.68
2018-10-18T19:27:07.576Z,65.05
2018-10-18T19:29:33.895Z,65.34
2018-10-18T19:32:00.242Z,65.62
2018-10-18T19:34:26.584Z,65.71
2018-10-18T19:36:52.917Z,65.69
2018-10-18T19:39:19.290Z,65.27
2018-10-18T19:41:45.614Z,64.79
2018-10-18T19:44:12.035Z,64.89
2018-10-18T19:46:38.447Z,64.95
2018-10-18T19:49:04.740Z,65.05
2018-10-18T19:51:31.076Z,65.12
2018-10-18T19:53:57.409Z,65.18
2018-10-18T19:56:23.745Z,65.41
2018-10-18T19:58:50.086Z,65.17
2018-10-18T20:01:16.445Z,65.04
2018-10-18T20:03:42.785Z,64.96
2018-10-18T20:06:09.121Z,65.12
2018-10-18T20:08:35.457Z,65.11
2018-10-18T20:11:01.808Z,65.84
2018-10-18T20:13:28.130Z,66.06
2018-10-18T20:15:54.510Z,65.76
2018-10-18T20:18:20.852Z,65.77
2018-10-18T20:20:47.169Z,66.33
2018-10-18T20:23:13.497Z,66.18
2018-10-18T20:25:39.939Z,66.39
2018-10-18T20:28:06.122Z,66.76
2018-10-18T20:30:32.480Z,66.90
2018-10-18T20:32:58.865Z,67.02
2018-10-18T20:35:25.174Z,67.51
2018-10-18T20:37:51.487Z,67.29
2018-10-18T20:40:17.792Z,66.97
2018-10-18T20:42:44.137Z,66.86
2018-10-18T20:45:10.537Z,66.78
2018-10-18T20:47:36.893Z,67.01
2018-10-18T20:50:03.118Z,67.10
2018-10-18T20:52:29.508Z,67.22
2018-10-18T20:54:55.808Z,67.53
2018-10-18T20:57:22.136Z,67.51
2018-10-18T20:59:48.463Z,67.13
2018-10-18T21:02:14.823Z,67.20
2018-10-18T21:04:41.164Z,67.22
2018-10-18T21:07:07.491Z,67.16
2018-10-18T21:09:33.888Z,67.45
2018-10-18T21:12:00.244Z,67.74
2018-10-18T21:14:26.546Z,67.92
2018-10-18T21:16:52.902Z,68.22
2018-10-18T21:19:19.198Z,68.38
2018-10-18T21:21:45.614Z,68.45
2018-10-18T21:24:11.855Z,68.55
2018-10-18T21:26:38.180Z,68.41
2018-10-18T21:29:04.562Z,68.55
2018-10-18T21:31:30.881Z,68.86
2018-10-18T21:33:57.318Z,68.92
2018-10-18T21:36:23.578Z,69.16
2018-10-18T21:38:49.893Z,69.88
2018-10-18T21:41:16.227Z,70.21
2018-10-18T21:43:42.561Z,70.65
2018-10-18T21:46:08.889Z,71.33
2018-10-18T21:48:35.214Z,71.34
2018-10-18T21:51:01.600Z,71.95
2018-10-18T21:53:27.873Z,71.77
2018-10-18T21:55:54.197Z,72.17
2018-10-18T21:58:20.562Z,72.56
2018-10-18T22:00:46.905Z,72.56
2018-10-18T22:03:13.318Z,72.55
2018-10-18T22:05:39.572Z,72.69
2018-10-18T22:08:05.885Z,72.56
2018-10-18T22:10:32.217Z,72.68
2018-10-18T22:12:58.558Z,72.91
2018-10-18T22:15:24.923Z,72.12
2018-10-18T22:17:51.207Z,72.88
2018-10-18T22:20:17.534Z,72.85
2018-10-18T22:22:43.841Z,72.67
2018-10-18T22:25:10.155Z,72.57
2018-10-18T22:27:36.498Z,72.87
2018-10-18T22:30:02.840Z,73.22
2018-10-18T22:32:29.141Z,73.09
2018-10-18T22:34:55.484Z,73.34
2018-10-18T22:37:21.836Z,73.10
2018-10-18T22:39:48.093Z,73.17
2018-10-18T22:42:14.445Z,73.46
2018-10-18T22:44:40.812Z,73.38
2018-10-18T22:47:07.186Z,73.21
2018-10-18T22:49:33.482Z,73.15
2018-10-18T22:51:59.786Z,72.79
2018-10-18T22:54:26.133Z,73.46
2018-10-18T22:56:52.457Z,74.30
2018-10-18T22:59:18.828Z,74.10
2018-10-18T23:01:45.129Z,73.43
2018-10-18T23:04:11.497Z,73.60
2018-10-18T23:06:37.807Z,73.60
2018-10-18T23:09:04.156Z,73.90
2018-10-18T23:11:30.511Z,73.76
2018-10-18T23:13:56.808Z,73.74
2018-10-18T23:16:23.143Z,73.95
2018-10-18T23:18:49.439Z,74.01
2018-10-18T23:21:15.810Z,74.03
2018-10-18T23:23:42.096Z,74.25
2018-10-18T23:26:08.423Z,74.62
2018-10-18T23:28:34.754Z,74.64
2018-10-18T23:31:01.059Z,74.45
2018-10-18T23:33:27.363Z,75.12
2018-10-18T23:35:53.675Z,74.75
2018-10-18T23:38:19.985Z,75.45
2018-10-18T23:40:46.314Z,75.06
2018-10-18T23:43:12.629Z,75.21
2018-10-18T23:45:38.963Z,75.37
2018-10-18T23:48:05.295Z,75.43
2018-10-18T23:50:31.593Z,75.58
2018-10-18T23:52:57.934Z,75.42
2018-10-18T23:55:24.239Z,75.35
2018-10-18T23:57:50.582Z,75.64
